createdAt,value
2018-12-04T00:00:32.768Z,9.09
2018-12-04T00:01:32.819Z,9.05
2018-12-04T00:02:32.905Z,9.05
2018-12-04T00:03:32.983Z,9.11
2018-12-04T00:04:33.064Z,9.15
2018-12-04T00:05:33.228Z,9.05
2018-12-04T00:06:33.255Z,9.11
2018-12-04T00:07:33.327Z,9.11
2018-12-04T00:08:33.409Z,9.15
2018-12-04T00:09:33.487Z,9.21
2018-12-04T00:10:33.578Z,9.13
2018-12-04T00:11:33.653Z,9.18
2018-12-04T00:12:33.732Z,9.19
2018-12-04T00:13:33.817Z,9.21
2018-12-04T00:14:33.902Z,9.19
2018-12-04T00:15:33.995Z,9.21
2018-12-04T00:16:34.094Z,9.21
2018-12-04T00:17:34.161Z,9.19
2018-12-04T00:18:34.247Z,9.24
2018-12-04T00:19:34.331Z,9.21
2018-12-04T00:20:34.422Z,9.22
2018-12-04T00:21:34.524Z,9.22
2018-12-04T00:22:34.575Z,9.24
2018-12-04T00:23:34.658Z,9.27
2018-12-04T00:24:34.739Z,9.18
2018-12-04T00:25:34.835Z,9.19
2018-12-04T00:26:34.897Z,9.21
2018-12-04T00:27:34.979Z,9.19
2018-12-04T00:28:35.075Z,9.19
2018-12-04T00:29:35.148Z,9.31
2018-12-04T00:30:35.241Z,9.18
2018-12-04T00:31:35.307Z,9.31
2018-12-04T00:32:35.402Z,9.34
2018-12-04T00:33:35.477Z,9.26
2018-12-04T00:34:35.557Z,9.29
2018-12-04T00:35:35.651Z,9.27
2018-12-04T00:36:35.722Z,9.26
2018-12-04T00:37:35.817Z,9.29
2018-12-04T00:38:35.889Z,9.29
2018-12-04T00:39:35.983Z,9.31
2018-12-04T00:40:36.069Z,9.27
2018-12-04T00:41:36.146Z,9.26
2018-12-04T00:42:36.220Z,9.30
2018-12-04T00:43:36.308Z,9.37
2018-12-04T00:44:36.382Z,9.33
2018-12-04T00:45:36.494Z,9.36
2018-12-04T00:46:36.557Z,9.39
2018-12-04T00:47:36.625Z,9.39
2018-12-04T00:48:36.717Z,9.34
2018-12-04T00:49:36.803Z,9.39
2018-12-04T00:50:36.912Z,9.40
2018-12-04T00:51:37.006Z,9.42
2018-12-04T00:52:37.048Z,9.45
2018-12-04T00:53:37.130Z,9.48
2018-12-04T00:54:37.219Z,9.40
2018-12-04T00:55:37.306Z,9.44
2018-12-04T00:56:37.385Z,9.45
2018-12-04T00:57:37.469Z,9.40
2018-12-04T00:58:37.541Z,9.49
2018-12-04T00:59:37.617Z,9.51
2018-12-04T01:00:37.716Z,9.49
2018-12-04T01:01:37.798Z,9.48
2018-12-04T01:02:37.880Z,9.55
2018-12-04T01:03:37.979Z,9.48
2018-12-04T01:04:38.058Z,9.47
2018-12-04T01:05:38.136Z,9.59
2018-12-04T01:06:38.243Z,9.51
2018-12-04T01:07:38.293Z,9.59
2018-12-04T01:08:38.380Z,9.63
2018-12-04T01:09:38.458Z,9.62
2018-12-04T01:10:38.546Z,9.62
2018-12-04T01:11:38.650Z,9.52
2018-12-04T01:12:38.709Z,9.70
2018-12-04T01:13:38.790Z,9.63
2018-12-04T01:14:38.882Z,9.64
2018-12-04T01:15:38.957Z,9.70
2018-12-04T01:16:39.040Z,9.66
2018-12-04T01:17:39.127Z,9.66
2018-12-04T01:18:39.202Z,9.67
2018-12-04T01:19:39.286Z,9.69
2018-12-04T01:20:39.385Z,9.70
2018-12-04T01:21:39.456Z,9.72
2018-12-04T01:22:39.551Z,9.70
2018-12-04T01:23:39.626Z,9.67
2018-12-04T01:24:39.702Z,9.66
2018-12-04T01:25:39.778Z,9.67
2018-12-04T01:26:39.878Z,9.67
2018-12-04T01:27:39.945Z,9.62
2018-12-04T01:28:40.024Z,9.69
2018-12-04T01:29:40.162Z,9.70
2018-12-04T01:30:40.182Z,9.69
2018-12-04T01:31:40.284Z,9.69
2018-12-04T01:32:40.355Z,9.74
2018-12-04T01:33:40.432Z,9.69
2018-12-04T01:34:40.521Z,9.73
2018-12-04T01:35:40.598Z,9.80
2018-12-04T01:36:40.698Z,9.73
2018-12-04T01:37:40.770Z,9.69
2018-12-04T01:38:40.848Z,9.87
2018-12-04T01:39:40.932Z,9.80
2018-12-04T01:40:41.064Z,9.72
2018-12-04T01:41:41.098Z,9.87
2018-12-04T01:42:41.164Z,9.76
2018-12-04T01:43:41.323Z,9.80
2018-12-04T01:44:43.154Z,9.69
2018-12-04T01:45:42.222Z,9.76
2018-12-04T01:46:42.087Z,9.72
2018-12-04T01:47:42.159Z,9.73
2018-12-04T01:48:42.232Z,9.80
2018-12-04T01:49:42.315Z,9.72
2018-12-04T01:50:42.415Z,9.74
2018-12-04T01:51:42.539Z,9.77
2018-12-04T01:52:42.568Z,9.64
2018-12-04T01:53:42.646Z,9.70
2018-12-04T01:54:42.733Z,9.72
2018-12-04T01:55:42.821Z,9.74
2018-12-04T01:56:42.913Z,9.76
2018-12-04T01:57:42.973Z,9.72
2018-12-04T01:58:43.063Z,9.73
2018-12-04T01:59:43.138Z,9.69
2018-12-04T02:00:43.223Z,9.74
2018-12-04T02:01:43.315Z,9.69
2018-12-04T02:02:43.427Z,9.80
2018-12-04T02:03:43.513Z,9.72
2018-12-04T02:04:43.584Z,9.70
2018-12-04T02:05:43.672Z,9.76
2018-12-04T02:06:43.789Z,9.80
2018-12-04T02:07:43.897Z,9.74
2018-12-04T02:08:43.919Z,9.70
2018-12-04T02:09:44.004Z,9.76
2018-12-04T02:10:44.185Z,9.67
2018-12-04T02:11:44.274Z,9.70
2018-12-04T02:12:44.354Z,9.70
2018-12-04T02:13:44.423Z,9.81
2018-12-04T02:14:44.508Z,9.81
2018-12-04T02:15:44.592Z,9.74
2018-12-04T02:16:44.681Z,9.64
2018-12-04T02:17:44.760Z,9.73
2018-12-04T02:18:44.843Z,9.69
2018-12-04T02:19:44.920Z,9.76
2018-12-04T02:20:45.001Z,9.70
2018-12-04T02:21:45.108Z,9.69
2018-12-04T02:22:45.157Z,9.70
2018-12-04T02:23:45.249Z,9.73
2018-12-04T02:24:45.335Z,9.77
2018-12-04T02:25:45.416Z,9.82
2018-12-04T02:26:45.527Z,9.80
2018-12-04T02:27:45.580Z,9.82
2018-12-04T02:28:45.666Z,9.76
2018-12-04T02:29:45.760Z,9.76
2018-12-04T02:30:45.832Z,9.76
2018-12-04T02:31:45.970Z,9.77
2018-12-04T02:32:46.010Z,9.82
2018-12-04T02:33:46.096Z,9.73
2018-12-04T02:34:46.180Z,9.73
2018-12-04T02:35:46.270Z,9.76
2018-12-04T02:36:46.348Z,9.72
2018-12-04T02:37:46.432Z,9.74
2018-12-04T02:38:46.504Z,9.70
2018-12-04T02:39:46.590Z,9.73
2018-12-04T02:40:46.673Z,9.76
2018-12-04T02:41:46.758Z,9.77
2018-12-04T02:42:46.876Z,9.80
2018-12-04T02:43:46.927Z,9.77
2018-12-04T02:44:47.008Z,9.77
2018-12-04T02:45:47.082Z,9.73
2018-12-04T02:46:47.178Z,9.81
2018-12-04T02:47:47.308Z,9.77
2018-12-04T02:48:47.323Z,9.73
2018-12-04T02:49:47.454Z,9.88
2018-12-04T02:50:47.491Z,9.82
2018-12-04T02:51:47.603Z,9.84
2018-12-04T02:52:47.676Z,9.88
2018-12-04T02:53:47.772Z,9.84
2018-12-04T02:54:47.838Z,9.95
2018-12-04T02:55:47.914Z,9.87
2018-12-04T02:56:48.002Z,9.94
2018-12-04T02:57:48.090Z,9.97
2018-12-04T02:58:48.161Z,10.03
2018-12-04T02:59:48.242Z,9.97
2018-12-04T03:00:48.323Z,9.95
2018-12-04T03:01:48.410Z,9.92
2018-12-04T03:02:48.502Z,9.94
2018-12-04T03:03:48.572Z,10.00
2018-12-04T03:04:48.656Z,10.03
2018-12-04T03:05:48.740Z,10.02
2018-12-04T03:06:48.826Z,10.06
2018-12-04T03:07:48.913Z,10.09
2018-12-04T03:08:49.025Z,10.02
2018-12-04T03:09:49.081Z,10.09
2018-12-04T03:10:49.150Z,10.12
2018-12-04T03:11:49.232Z,10.06
2018-12-04T03:12:49.329Z,10.09
2018-12-04T03:13:49.389Z,10.10
2018-12-04T03:14:49.481Z,10.15
2018-12-04T03:15:49.571Z,10.12
2018-12-04T03:16:49.666Z,10.17
2018-12-04T03:17:49.754Z,10.12
2018-12-04T03:18:49.825Z,10.12
2018-12-04T03:19:49.913Z,10.12
2018-12-04T03:20:49.997Z,10.07
2018-12-04T03:21:50.064Z,10.12
2018-12-04T03:22:50.166Z,10.15
2018-12-04T03:23:50.230Z,10.13
2018-12-04T03:24:50.308Z,10.05
2018-12-04T03:25:50.397Z,10.07
2018-12-04T03:26:50.476Z,10.09
2018-12-04T03:27:50.562Z,10.10
2018-12-04T03:28:50.640Z,10.12
2018-12-04T03:29:50.717Z,10.03
2018-12-04T03:30:50.821Z,10.09
2018-12-04T03:31:50.903Z,9.99
2018-12-04T03:32:51.005Z,10.03
2018-12-04T03:33:51.051Z,10.05
2018-12-04T03:34:51.133Z,9.94
2018-12-04T03:35:51.227Z,9.91
2018-12-04T03:36:51.334Z,9.94
2018-12-04T03:37:51.395Z,9.85
2018-12-04T03:38:51.467Z,9.80
2018-12-04T03:39:51.608Z,9.81
2018-12-04T03:40:51.628Z,9.70
2018-12-04T03:41:51.720Z,9.70
2018-12-04T03:42:51.814Z,9.70
2018-12-04T03:43:51.884Z,9.63
2018-12-04T03:44:51.998Z,9.67
2018-12-04T03:45:52.038Z,9.56
2018-12-04T03:46:52.125Z,9.59
2018-12-04T03:47:52.251Z,9.54
2018-12-04T03:48:52.286Z,9.47
2018-12-04T03:49:52.364Z,9.40
2018-12-04T03:50:52.463Z,9.48
2018-12-04T03:51:52.531Z,9.51
2018-12-04T03:52:52.629Z,9.42
2018-12-04T03:53:52.692Z,9.31
2018-12-04T03:54:52.787Z,9.39
2018-12-04T03:55:52.863Z,9.31
2018-12-04T03:56:52.955Z,9.30
2018-12-04T03:57:53.044Z,9.36
2018-12-04T03:58:53.124Z,9.33
2018-12-04T03:59:53.209Z,9.24
2018-12-04T04:00:53.287Z,9.16
2018-12-04T04:01:53.376Z,9.18
2018-12-04T04:02:53.464Z,9.16
2018-12-04T04:03:53.531Z,9.09
2018-12-04T04:04:53.628Z,9.22
2018-12-04T04:05:53.697Z,9.11
2018-12-04T04:06:53.781Z,9.08
2018-12-04T04:07:53.890Z,9.15
2018-12-04T04:08:53.952Z,9.11
2018-12-04T04:09:54.028Z,9.09
2018-12-04T04:10:54.123Z,9.16
2018-12-04T04:11:54.199Z,9.02
2018-12-04T04:12:54.293Z,9.05
2018-12-04T04:13:54.376Z,9.08
2018-12-04T04:14:54.450Z,9.00
2018-12-04T04:15:54.547Z,9.02
2018-12-04T04:16:54.609Z,8.86
2018-12-04T04:17:54.714Z,8.93
2018-12-04T04:18:54.782Z,8.97
2018-12-04T04:19:54.860Z,8.90
2018-12-04T04:20:54.970Z,8.87
2018-12-04T04:21:55.062Z,8.89
2018-12-04T04:22:55.172Z,8.87
2018-12-04T04:23:55.228Z,8.78
2018-12-04T04:24:55.318Z,8.82
2018-12-04T04:25:55.387Z,8.74
2018-12-04T04:26:56.803Z,8.75
2018-12-04T04:27:56.855Z,8.72
2018-12-04T04:28:55.889Z,8.74
2018-12-04T04:29:55.955Z,8.71
2018-12-04T04:30:56.094Z,8.71
2018-12-04T04:31:56.137Z,8.61
2018-12-04T04:32:56.224Z,8.71
2018-12-04T04:33:56.317Z,8.82
2018-12-04T04:34:56.375Z,8.74
2018-12-04T04:35:56.455Z,8.68
2018-12-04T04:36:56.542Z,8.72
2018-12-04T04:37:56.618Z,8.69
2018-12-04T04:38:56.722Z,8.68
2018-12-04T04:39:56.801Z,8.64
2018-12-04T04:40:56.878Z,8.60
2018-12-04T04:41:56.957Z,8.69
2018-12-04T04:42:57.042Z,8.75
2018-12-04T04:43:57.133Z,8.63
2018-12-04T04:44:57.215Z,8.75
2018-12-04T04:45:57.293Z,8.72
2018-12-04T04:46:57.371Z,8.75
2018-12-04T04:47:57.457Z,8.71
2018-12-04T04:48:57.543Z,8.72
2018-12-04T04:49:57.629Z,8.66
2018-12-04T04:50:57.711Z,8.66
2018-12-04T04:51:57.790Z,8.61
2018-12-04T04:52:57.861Z,8.66
2018-12-04T04:53:57.982Z,8.68
2018-12-04T04:54:58.035Z,8.72
2018-12-04T04:55:58.122Z,8.68
2018-12-04T04:56:58.196Z,8.69
2018-12-04T04:57:58.268Z,8.68
2018-12-04T04:58:58.366Z,8.66
2018-12-04T04:59:58.431Z,8.68
2018-12-04T05:00:58.519Z,8.69
2018-12-04T05:01:58.618Z,8.63
2018-12-04T05:02:58.690Z,8.64
2018-12-04T05:03:58.789Z,8.61
2018-12-04T05:04:58.867Z,8.63
2018-12-04T05:05:58.958Z,8.64
2018-12-04T05:06:59.021Z,8.61
2018-12-04T05:07:59.105Z,8.59
2018-12-04T05:08:59.197Z,8.49
2018-12-04T05:09:59.263Z,8.61
2018-12-04T05:10:59.353Z,8.56
2018-12-04T05:11:59.440Z,8.49
2018-12-04T05:12:59.529Z,8.57
2018-12-04T05:13:59.601Z,8.54
2018-12-04T05:14:59.686Z,8.57
2018-12-04T05:15:59.771Z,8.52
2018-12-04T05:16:59.849Z,8.59
2018-12-04T05:17:59.927Z,8.69
2018-12-04T05:19:00.018Z,8.66
2018-12-04T05:20:00.109Z,8.69
2018-12-04T05:21:00.169Z,8.72
2018-12-04T05:22:00.255Z,8.63
2018-12-04T05:23:00.347Z,8.78
2018-12-04T05:24:00.426Z,8.66
2018-12-04T05:25:00.501Z,8.69
2018-12-04T05:26:00.582Z,8.74
2018-12-04T05:27:00.658Z,8.61
2018-12-04T05:28:00.752Z,8.60
2018-12-04T05:29:00.867Z,8.64
2018-12-04T05:30:00.916Z,8.52
2018-12-04T05:31:00.998Z,8.53
2018-12-04T05:32:01.100Z,8.53
2018-12-04T05:33:01.180Z,8.52
2018-12-04T05:34:01.286Z,8.44
2018-12-04T05:35:01.348Z,8.49
2018-12-04T05:36:01.429Z,8.56
2018-12-04T05:37:01.524Z,8.45
2018-12-04T05:38:01.600Z,8.53
2018-12-04T05:39:01.683Z,8.54
2018-12-04T05:40:01.765Z,8.38
2018-12-04T05:41:01.826Z,8.42
2018-12-04T05:42:01.915Z,8.41
2018-12-04T05:43:01.997Z,8.42
2018-12-04T05:44:02.076Z,8.36
2018-12-04T05:45:02.168Z,8.49
2018-12-04T05:46:02.242Z,8.41
2018-12-04T05:47:02.318Z,8.46
2018-12-04T05:48:02.405Z,8.50
2018-12-04T05:49:02.484Z,8.42
2018-12-04T05:50:02.561Z,8.36
2018-12-04T05:51:02.645Z,8.38
2018-12-04T05:52:02.728Z,8.32
2018-12-04T05:53:02.811Z,8.44
2018-12-04T05:54:02.915Z,8.35
2018-12-04T05:55:02.974Z,8.35
2018-12-04T05:56:03.060Z,8.42
2018-12-04T05:57:03.141Z,8.32
2018-12-04T05:58:03.220Z,8.26
2018-12-04T05:59:03.316Z,8.32
2018-12-04T06:00:03.399Z,8.35
2018-12-04T06:01:03.471Z,8.35
2018-12-04T06:02:03.550Z,8.39
2018-12-04T06:03:03.641Z,8.20
2018-12-04T06:04:03.751Z,8.31
2018-12-04T06:05:03.800Z,8.24
2018-12-04T06:06:03.870Z,8.31
2018-12-04T06:07:03.956Z,8.31
2018-12-04T06:08:04.039Z,8.31
2018-12-04T06:09:04.159Z,8.27
2018-12-04T06:10:04.212Z,8.28
2018-12-04T06:11:04.287Z,8.27
2018-12-04T06:12:04.387Z,8.28
2018-12-04T06:13:04.474Z,8.28
2018-12-04T06:14:04.593Z,8.31
2018-12-04T06:15:04.656Z,8.31
2018-12-04T06:16:04.717Z,8.21
2018-12-04T06:17:04.802Z,8.16
2018-12-04T06:18:04.876Z,8.28
2018-12-04T06:19:04.971Z,8.34
2018-12-04T06:20:05.056Z,8.20
2018-12-04T06:21:05.149Z,8.31
2018-12-04T06:22:05.227Z,8.23
2018-12-04T06:23:05.311Z,8.26
2018-12-04T06:24:05.384Z,8.21
2018-12-04T06:25:05.496Z,8.27
2018-12-04T06:26:05.566Z,8.23
2018-12-04T06:27:05.634Z,8.21
2018-12-04T06:28:05.721Z,8.20
2018-12-04T06:29:05.796Z,8.27
2018-12-04T06:30:05.888Z,8.26
2018-12-04T06:31:05.954Z,8.20
2018-12-04T06:32:06.033Z,8.24
2018-12-04T06:33:06.119Z,8.23
2018-12-04T06:34:06.221Z,8.17
2018-12-04T06:35:06.315Z,8.18
2018-12-04T06:36:06.375Z,8.21
2018-12-04T06:37:06.885Z,8.20
2018-12-04T06:38:06.542Z,8.24
2018-12-04T06:39:06.619Z,8.14
2018-12-04T06:40:06.721Z,8.21
2018-12-04T06:41:06.789Z,8.11
2018-12-04T06:42:06.867Z,8.16
2018-12-04T06:43:06.953Z,8.17
2018-12-04T06:44:07.045Z,8.13
2018-12-04T06:45:07.120Z,8.05
2018-12-04T06:46:07.207Z,8.08
2018-12-04T06:47:07.285Z,8.02
2018-12-04T06:48:07.355Z,8.03
2018-12-04T06:49:07.437Z,8.06
2018-12-04T06:50:07.556Z,8.06
2018-12-04T06:51:07.632Z,8.03
2018-12-04T06:52:07.722Z,7.98
2018-12-04T06:53:07.791Z,7.98
2018-12-04T06:54:07.870Z,7.96
2018-12-04T06:55:07.971Z,7.91
2018-12-04T06:56:08.032Z,7.93
2018-12-04T06:57:08.112Z,7.85
2018-12-04T06:58:08.227Z,7.81
2018-12-04T06:59:08.285Z,7.83
2018-12-04T07:00:08.381Z,7.99
2018-12-04T07:01:08.471Z,7.98
2018-12-04T07:02:08.538Z,7.96
2018-12-04T07:03:08.615Z,7.93
2018-12-04T07:04:08.723Z,7.91
2018-12-04T07:05:08.791Z,7.95
2018-12-04T07:06:08.856Z,7.88
2018-12-04T07:07:08.946Z,7.91
2018-12-04T07:08:09.019Z,7.93
2018-12-04T07:09:09.119Z,7.96
2018-12-04T07:10:09.207Z,8.03
2018-12-04T07:11:09.279Z,8.11
2018-12-04T07:12:09.364Z,8.17
2018-12-04T07:13:09.436Z,8.17
2018-12-04T07:14:09.527Z,8.14
2018-12-04T07:15:09.628Z,8.17
2018-12-04T07:16:09.689Z,8.08
2018-12-04T07:17:09.770Z,8.17
2018-12-04T07:18:09.882Z,8.11
2018-12-04T07:19:09.939Z,8.11
2018-12-04T07:20:10.029Z,7.98
2018-12-04T07:21:10.106Z,8.02
2018-12-04T07:22:10.185Z,8.06
2018-12-04T07:23:10.275Z,8.03
2018-12-04T07:24:10.349Z,7.93
2018-12-04T07:25:10.444Z,8.03
2018-12-04T07:26:10.505Z,8.02
2018-12-04T07:27:10.592Z,7.95
2018-12-04T07:28:10.716Z,8.02
2018-12-04T07:29:10.751Z,7.99
2018-12-04T07:30:10.843Z,7.88
2018-12-04T07:31:10.920Z,7.87
2018-12-04T07:32:11.006Z,7.87
2018-12-04T07:33:11.086Z,7.99
2018-12-04T07:34:11.173Z,7.91
2018-12-04T07:35:11.252Z,7.85
2018-12-04T07:36:11.328Z,7.90
2018-12-04T07:37:11.409Z,7.95
2018-12-04T07:38:12.251Z,7.85
2018-12-04T07:39:11.613Z,7.85
2018-12-04T07:40:11.661Z,7.87
2018-12-04T07:41:11.737Z,7.88
2018-12-04T07:42:11.826Z,7.85
2018-12-04T07:43:11.917Z,7.78
2018-12-04T07:44:11.993Z,7.83
2018-12-04T07:45:12.128Z,7.95
2018-12-04T07:46:12.148Z,7.90
2018-12-04T07:47:12.235Z,7.85
2018-12-04T07:48:12.412Z,7.83
2018-12-04T07:49:12.421Z,7.78
2018-12-04T07:50:12.531Z,7.87
2018-12-04T07:51:12.563Z,7.83
2018-12-04T07:52:12.644Z,7.81
2018-12-04T07:53:12.723Z,7.87
2018-12-04T07:54:12.802Z,7.78
2018-12-04T07:55:12.923Z,7.83
2018-12-04T07:56:13.020Z,7.84
2018-12-04T07:57:13.061Z,7.80
2018-12-04T07:58:13.121Z,7.84
2018-12-04T07:59:13.215Z,8.08
2018-12-04T08:00:13.291Z,8.09
2018-12-04T08:01:13.417Z,8.32
2018-12-04T08:02:13.460Z,8.49
2018-12-04T08:03:13.546Z,8.54
2018-12-04T08:04:13.625Z,8.74
2018-12-04T08:05:13.722Z,8.87
2018-12-04T08:06:13.797Z,8.93
2018-12-04T08:07:13.879Z,8.90
2018-12-04T08:08:14.020Z,9.00
2018-12-04T08:09:14.084Z,9.08
2018-12-04T08:10:14.167Z,9.05
2018-12-04T08:11:14.248Z,9.00
2018-12-04T08:12:14.357Z,9.03
2018-12-04T08:13:14.427Z,9.05
2018-12-04T08:14:14.489Z,8.96
2018-12-04T08:15:14.578Z,8.84
2018-12-04T08:16:14.658Z,8.82
2018-12-04T08:17:14.752Z,8.71
2018-12-04T08:18:14.840Z,8.72
2018-12-04T08:19:14.926Z,8.66
2018-12-04T08:20:14.982Z,8.53
2018-12-04T08:21:15.070Z,8.49
2018-12-04T08:22:15.199Z,8.54
2018-12-04T08:23:15.229Z,8.59
2018-12-04T08:24:15.309Z,8.50
2018-12-04T08:25:15.389Z,8.56
2018-12-04T08:26:15.480Z,8.59
2018-12-04T08:27:15.588Z,8.66
2018-12-04T08:28:15.642Z,8.66
2018-12-04T08:29:15.720Z,8.61
2018-12-04T08:30:15.814Z,8.66
2018-12-04T08:31:15.901Z,8.69
2018-12-04T08:32:15.981Z,8.64
2018-12-04T08:33:16.075Z,8.61
2018-12-04T08:34:16.132Z,8.68
2018-12-04T08:35:16.209Z,8.64
2018-12-04T08:36:16.331Z,8.59
2018-12-04T08:37:16.379Z,8.71
2018-12-04T08:38:16.465Z,8.64
2018-12-04T08:39:16.545Z,8.56
2018-12-04T08:40:16.637Z,8.53
2018-12-04T08:41:16.738Z,8.52
2018-12-04T08:42:16.820Z,8.45
2018-12-04T08:43:16.870Z,8.49
2018-12-04T08:44:16.963Z,8.42
2018-12-04T08:45:17.036Z,8.49
2018-12-04T08:46:17.121Z,8.36
2018-12-04T08:47:17.594Z,8.31
2018-12-04T08:48:17.286Z,8.35
2018-12-04T08:49:17.379Z,8.42
2018-12-04T08:50:17.454Z,8.18
2018-12-04T08:51:17.537Z,8.20
2018-12-04T08:52:17.632Z,8.27
2018-12-04T08:53:17.710Z,8.39
2018-12-04T08:54:17.805Z,8.26
2018-12-04T08:55:17.867Z,8.14
2018-12-04T08:56:17.963Z,8.16
2018-12-04T08:57:18.045Z,8.24
2018-12-04T08:58:18.173Z,8.18
2018-12-04T08:59:18.195Z,8.16
2018-12-04T09:00:18.277Z,8.21
2018-12-04T09:01:18.375Z,8.23
2018-12-04T09:02:18.445Z,8.28
2018-12-04T09:03:18.528Z,8.24
2018-12-04T09:04:18.608Z,8.24
2018-12-04T09:05:18.780Z,8.20
2018-12-04T09:06:18.792Z,8.26
2018-12-04T09:07:18.852Z,8.23
2018-12-04T09:08:18.930Z,8.23
2018-12-04T09:09:19.022Z,8.17
2018-12-04T09:10:19.097Z,8.26
2018-12-04T09:11:19.207Z,8.20
2018-12-04T09:12:19.271Z,8.16
2018-12-04T09:13:19.354Z,8.17
2018-12-04T09:14:19.451Z,8.11
2018-12-04T09:15:19.511Z,8.14
2018-12-04T09:16:23.398Z,8.17
2018-12-04T09:17:19.688Z,8.20
2018-12-04T09:18:19.810Z,8.14
2018-12-04T09:19:19.866Z,8.14
2018-12-04T09:20:20.454Z,8.26
2018-12-04T09:21:21.995Z,8.16
2018-12-04T09:22:20.468Z,8.18
2018-12-04T09:23:20.561Z,8.24
2018-12-04T09:24:20.639Z,8.31
2018-12-04T09:25:20.717Z,8.36
2018-12-04T09:26:20.856Z,8.36
2018-12-04T09:27:20.887Z,8.41
2018-12-04T09:28:20.973Z,8.26
2018-12-04T09:29:21.113Z,8.45
2018-12-04T09:30:21.144Z,8.45
2018-12-04T09:31:21.551Z,8.35
2018-12-04T09:32:21.300Z,8.41
2018-12-04T09:33:21.378Z,8.35
2018-12-04T09:34:21.461Z,8.44
2018-12-04T09:35:21.540Z,8.38
2018-12-04T09:36:21.638Z,8.44
2018-12-04T09:37:21.709Z,8.45
2018-12-04T09:38:21.795Z,8.39
2018-12-04T09:39:21.876Z,8.42
2018-12-04T09:40:21.975Z,8.42
2018-12-04T09:41:22.053Z,8.49
2018-12-04T09:42:22.120Z,8.50
2018-12-04T09:43:22.211Z,8.44
2018-12-04T09:44:22.296Z,8.45
2018-12-04T09:45:22.382Z,8.52
2018-12-04T09:46:22.475Z,8.42
2018-12-04T09:47:22.545Z,8.49
2018-12-04T09:48:22.642Z,8.39
2018-12-04T09:49:22.722Z,8.38
2018-12-04T09:50:22.787Z,8.42
2018-12-04T09:51:22.901Z,8.41
2018-12-04T09:52:22.954Z,8.54
2018-12-04T09:53:25.217Z,8.50
2018-12-04T09:54:23.120Z,8.54
2018-12-04T09:55:23.205Z,8.49
2018-12-04T09:56:23.296Z,8.64
2018-12-04T09:57:23.377Z,8.64
2018-12-04T09:58:23.449Z,8.78
2018-12-04T09:59:23.533Z,8.69
2018-12-04T10:00:23.617Z,8.66
2018-12-04T10:01:23.707Z,8.69
2018-12-04T10:02:23.793Z,8.60
2018-12-04T10:03:23.853Z,8.56
2018-12-04T10:04:23.940Z,8.60
2018-12-04T10:05:24.037Z,8.66
2018-12-04T10:06:24.111Z,8.53
2018-12-04T10:07:24.191Z,8.56
2018-12-04T10:08:24.637Z,8.49
2018-12-04T10:09:24.357Z,8.53
2018-12-04T10:10:24.430Z,8.60
2018-12-04T10:11:24.535Z,8.56
2018-12-04T10:12:24.593Z,8.57
2018-12-04T10:13:24.683Z,8.63
2018-12-04T10:14:24.767Z,8.71
2018-12-04T10:15:24.845Z,8.61
2018-12-04T10:16:24.964Z,8.60
2018-12-04T10:17:25.034Z,8.64
2018-12-04T10:18:25.146Z,8.66
2018-12-04T10:19:25.198Z,8.75
2018-12-04T10:20:25.282Z,8.81
2018-12-04T10:21:25.374Z,8.69
2018-12-04T10:22:25.492Z,8.74
2018-12-04T10:23:25.521Z,8.64
2018-12-04T10:24:25.624Z,8.61
2018-12-04T10:25:25.693Z,8.66
2018-12-04T10:26:25.777Z,8.63
2018-12-04T10:27:25.865Z,8.59
2018-12-04T10:28:25.936Z,8.57
2018-12-04T10:29:26.023Z,8.53
2018-12-04T10:30:26.094Z,8.49
2018-12-04T10:31:26.200Z,8.59
2018-12-04T10:32:26.262Z,8.53
2018-12-04T10:33:26.342Z,8.61
2018-12-04T10:34:26.425Z,8.64
2018-12-04T10:35:26.504Z,8.63
2018-12-04T10:36:26.613Z,8.57
2018-12-04T10:37:26.665Z,8.68
2018-12-04T10:38:26.771Z,8.66
2018-12-04T10:39:26.835Z,8.60
2018-12-04T10:40:26.916Z,8.68
2018-12-04T10:41:27.003Z,8.61
2018-12-04T10:42:27.074Z,8.66
2018-12-04T10:43:27.164Z,8.61
2018-12-04T10:44:27.251Z,8.63
2018-12-04T10:45:27.322Z,8.71
2018-12-04T10:46:27.410Z,8.68
2018-12-04T10:47:27.491Z,8.71
2018-12-04T10:48:27.563Z,8.66
2018-12-04T10:49:27.672Z,8.72
2018-12-04T10:50:27.734Z,8.64
2018-12-04T10:51:27.825Z,8.75
2018-12-04T10:52:27.895Z,8.77
2018-12-04T10:53:27.979Z,8.74
2018-12-04T10:54:28.063Z,8.68
2018-12-04T10:55:28.149Z,8.77
2018-12-04T10:56:28.231Z,8.72
2018-12-04T10:57:28.303Z,8.78
2018-12-04T10:58:28.382Z,8.87
2018-12-04T10:59:28.483Z,8.87
2018-12-04T11:00:28.561Z,8.81
2018-12-04T11:01:28.659Z,8.75
2018-12-04T11:02:28.715Z,8.82
2018-12-04T11:03:28.812Z,8.86
2018-12-04T11:04:28.881Z,8.87
2018-12-04T11:05:28.967Z,8.81
2018-12-04T11:06:29.108Z,8.86
2018-12-04T11:07:29.129Z,8.84
2018-12-04T11:08:29.211Z,8.89
2018-12-04T11:09:29.303Z,8.89
2018-12-04T11:10:29.377Z,8.96
2018-12-04T11:11:29.476Z,8.89
2018-12-04T11:12:29.545Z,8.93
2018-12-04T11:13:29.630Z,8.87
2018-12-04T11:14:29.709Z,8.87
2018-12-04T11:15:29.802Z,8.77
2018-12-04T11:16:29.889Z,8.79
2018-12-04T11:17:29.972Z,8.90
2018-12-04T11:18:30.042Z,8.86
2018-12-04T11:19:30.135Z,8.84
2018-12-04T11:20:30.216Z,8.92
2018-12-04T11:21:30.298Z,8.87
2018-12-04T11:22:30.389Z,8.75
2018-12-04T11:23:30.487Z,8.77
2018-12-04T11:24:30.546Z,8.69
2018-12-04T11:25:30.628Z,8.68
2018-12-04T11:26:30.757Z,8.69
2018-12-04T11:27:30.793Z,8.68
2018-12-04T11:28:30.874Z,8.61
2018-12-04T11:29:30.959Z,8.63
2018-12-04T11:30:31.041Z,8.57
2018-12-04T11:31:31.151Z,8.54
2018-12-04T11:32:31.220Z,8.69
2018-12-04T11:33:31.301Z,8.61
2018-12-04T11:34:31.388Z,8.60
2018-12-04T11:35:31.461Z,8.44
2018-12-04T11:36:31.539Z,8.45
2018-12-04T11:37:31.641Z,8.50
2018-12-04T11:38:31.705Z,8.49
2018-12-04T11:39:31.782Z,8.50
2018-12-04T11:40:31.873Z,8.38
2018-12-04T11:41:31.940Z,8.42
2018-12-04T11:42:32.037Z,8.39
2018-12-04T11:43:32.117Z,8.38
2018-12-04T11:44:32.189Z,8.39
2018-12-04T11:45:32.290Z,8.44
2018-12-04T11:46:32.367Z,8.41
2018-12-04T11:47:32.453Z,8.36
2018-12-04T11:48:32.528Z,8.35
2018-12-04T11:49:32.612Z,8.24
2018-12-04T11:50:32.689Z,8.24
2018-12-04T11:51:32.814Z,8.32
2018-12-04T11:52:32.864Z,8.41
2018-12-04T11:53:32.929Z,8.34
2018-12-04T11:54:33.010Z,8.34
2018-12-04T11:55:33.092Z,8.32
2018-12-04T11:56:33.172Z,8.31
2018-12-04T11:57:33.327Z,8.26
2018-12-04T11:58:33.344Z,8.28
2018-12-04T11:59:33.421Z,8.45
2018-12-04T12:00:33.520Z,8.42
2018-12-04T12:01:33.585Z,8.27
2018-12-04T12:02:33.681Z,8.21
2018-12-04T12:03:33.756Z,8.23
2018-12-04T12:04:33.836Z,8.31
2018-12-04T12:05:33.918Z,8.27
2018-12-04T12:06:34.000Z,8.21
2018-12-04T12:07:34.090Z,8.21
2018-12-04T12:08:34.210Z,8.17
2018-12-04T12:09:34.255Z,8.18
2018-12-04T12:10:34.328Z,8.09
2018-12-04T12:11:34.413Z,8.16
2018-12-04T12:12:34.510Z,8.05
2018-12-04T12:13:34.583Z,7.95
2018-12-04T12:14:34.657Z,8.05
2018-12-04T12:15:34.735Z,7.98
2018-12-04T12:16:34.828Z,8.06
2018-12-04T12:17:34.913Z,8.03
2018-12-04T12:18:34.991Z,8.02
2018-12-04T12:19:35.070Z,7.90
2018-12-04T12:20:35.145Z,8.01
2018-12-04T12:21:35.234Z,7.99
2018-12-04T12:22:35.326Z,7.90
2018-12-04T12:23:35.454Z,7.95
2018-12-04T12:24:35.487Z,7.99
2018-12-04T12:25:35.560Z,7.90
2018-12-04T12:26:35.637Z,7.88
2018-12-04T12:27:35.730Z,7.93
2018-12-04T12:28:35.803Z,7.98
2018-12-04T12:29:35.887Z,7.88
2018-12-04T12:30:36.004Z,8.02
2018-12-04T12:31:36.062Z,7.87
2018-12-04T12:32:36.174Z,7.90
2018-12-04T12:33:36.232Z,8.06
2018-12-04T12:34:36.309Z,8.08
2018-12-04T12:35:36.455Z,7.99
2018-12-04T12:36:36.484Z,7.96
2018-12-04T12:37:36.581Z,8.02
2018-12-04T12:38:36.647Z,8.01
2018-12-04T12:39:36.718Z,8.02
2018-12-04T12:40:36.804Z,8.06
2018-12-04T12:41:37.900Z,8.08
2018-12-04T12:42:36.978Z,7.98
2018-12-04T12:43:37.046Z,8.01
2018-12-04T12:44:37.147Z,8.09
2018-12-04T12:45:37.216Z,7.99
2018-12-04T12:46:37.312Z,8.02
2018-12-04T12:47:37.412Z,7.99
2018-12-04T12:48:37.488Z,7.90
2018-12-04T12:49:37.568Z,7.91
2018-12-04T12:50:37.662Z,7.91
2018-12-04T12:51:37.738Z,8.01
2018-12-04T12:52:37.827Z,7.83
2018-12-04T12:53:37.902Z,7.85
2018-12-04T12:54:37.983Z,7.80
2018-12-04T12:55:38.093Z,7.85
2018-12-04T12:56:38.151Z,7.74
2018-12-04T12:57:38.248Z,7.90
2018-12-04T12:58:38.327Z,7.81
2018-12-04T12:59:38.391Z,7.81
2018-12-04T13:00:38.476Z,7.81
2018-12-04T13:01:38.573Z,7.83
2018-12-04T13:02:38.661Z,7.81
2018-12-04T13:03:38.757Z,7.78
2018-12-04T13:04:38.815Z,7.90
2018-12-04T13:05:38.890Z,7.74
2018-12-04T13:06:38.985Z,7.72
2018-12-04T13:07:39.089Z,7.78
2018-12-04T13:08:39.141Z,7.72
2018-12-04T13:09:39.230Z,7.75
2018-12-04T13:10:39.311Z,7.72
2018-12-04T13:11:39.448Z,7.72
2018-12-04T13:12:39.493Z,7.67
2018-12-04T13:13:39.552Z,7.77
2018-12-04T13:14:39.654Z,7.80
2018-12-04T13:15:39.727Z,7.80
2018-12-04T13:16:39.797Z,7.78
2018-12-04T13:17:39.885Z,7.74
2018-12-04T13:18:39.989Z,7.78